Time;durP1;ratioP1;P1;durP2;ratioP2;P2;SDS_P1;SDS_P2;PMS_P1;PMS_P2;Temp;Humidity;BMP_temperature;BMP_pressure;BME280_temperature;BME280_humidity;BME280_pressure;Samples;Min_cycle;Max_cycle;Signal;HPM_P1;HPM_P2
2023/03/04 00:01:58;;;;;;;22.90;4.47;;;;;;;;;;4452041;32;19932;-70
2023/03/04 00:04:23;;;;;;;;;;;;;;;;;;4451428;32;20143;-69
2023/03/04 00:06:48;;;;;;;17.77;3.25;;;;;;;;;;4451958;32;19932;-69
2023/03/04 00:09:13;;;;;;;;;;;;;;;;;;4437613;32;20133;-69
2023/03/04 00:11:38;;;;;;;14.45;4.50;;;;;;;;;;4451757;32;19952;-69
2023/03/04 00:14:04;;;;;;;;;;;;;;;;;;4452890;32;20025;-69
2023/03/04 00:16:29;;;;;;;16.58;2.92;;;;;;;;;;4437574;32;19971;-69
2023/03/04 00:18:54;;;;;;;;;;;;;;;;;;4452469;32;20124;-69
2023/03/04 00:21:19;;;;;;;15.73;3.10;;;;;;;;;;4452172;32;20290;-69
2023/03/04 00:23:44;;;;;;;;;;;;;;;;;;4453369;32;20132;-69
2023/03/04 00:26:09;;;;;;;16.27;3.30;;;;;;;;;;4451167;32;20326;-68
2023/03/04 00:28:35;;;;;;;;;;;;;;;;;;4452102;32;20093;-69
2023/03/04 00:31:00;;;;;;;16.92;3.05;;;;;;;;;;4453021;32;19979;-69
2023/03/04 00:33:25;;;;;;;;;;;;;;;;;;4453323;32;20033;-69
2023/03/04 00:35:50;;;;;;;14.55;2.65;;;;;;;;;;4453188;32;19936;-69
2023/03/04 00:38:15;;;;;;;;;;;;;;;;;;4452773;32;20529;-68
2023/03/04 00:40:40;;;;;;;20.20;3.78;;;;;;;;;;4451157;32;19932;-69
2023/03/04 00:43:05;;;;;;;;;;;;;;;;;;4453132;32;20025;-69
2023/03/04 00:45:31;;;;;;;21.62;3.58;;;;;;;;;;4451998;32;19943;-69
2023/03/04 00:47:56;;;;;;;;;;;;;;;;;;4466554;32;20025;-69
2023/03/04 00:50:21;;;;;;;23.70;3.45;;;;;;;;;;4466138;32;20019;-69
2023/03/04 00:52:46;;;;;;;;;;;;;;;;;;4467819;32;20165;-69
2023/03/04 00:55:11;;;;;;;18.75;2.83;;;;;;;;;;4466993;32;19947;-69
2023/03/04 00:57:36;;;;;;;;;;;;;;;;;;4467625;32;20179;-69
2023/03/04 01:00:02;;;;;;;24.85;3.25;;;;;;;;;;4468114;32;19932;-69
2023/03/04 01:02:27;;;;;;;;;;;;;;;;;;4468181;32;20052;-69
2023/03/04 01:04:52;;;;;;;24.70;4.25;;;;;;;;;;4468132;32;19940;-69
2023/03/04 01:07:17;;;;;;;;;;;;;;;;;;4467369;32;20020;-69
2023/03/04 01:09:43;;;;;;;20.67;3.05;;;;;;;;;;4453093;32;19980;-69
2023/03/04 01:12:08;;;;;;;;;;;;;;;;;;4467992;32;20034;-70
2023/03/04 01:14:33;;;;;;;15.75;2.97;;;;;;;;;;4467861;32;19932;-70
2023/03/04 01:16:58;;;;;;;;;;;;;;;;;;4462783;32;20156;-69
2023/03/04 01:19:23;;;;;;;11.65;2.70;;;;;;;;;;4452459;32;19947;-69
2023/03/04 01:21:48;;;;;;;;;;;;;;;;;;4453376;32;20148;-68
2023/03/04 01:24:14;;;;;;;20.08;3.40;;;;;;;;;;4440533;32;19936;-69
2023/03/04 01:26:39;;;;;;;;;;;;;;;;;;4452315;32;20025;-69
2023/03/04 01:29:04;;;;;;;26.05;3.20;;;;;;;;;;4438110;32;19937;-69
2023/03/04 01:31:29;;;;;;;;;;;;;;;;;;4451958;32;20119;-70
2023/03/04 01:33:54;;;;;;;16.33;3.80;;;;;;;;;;4453001;32;20291;-69
2023/03/04 01:36:19;;;;;;;;;;;;;;;;;;4438630;32;20029;-69
2023/03/04 01:38:45;;;;;;;15.25;4.25;;;;;;;;;;4450967;32;19973;-69
2023/03/04 01:41:10;;;;;;;;;;;;;;;;;;4453182;32;20025;-69
2023/03/04 01:43:36;;;;;;;18.35;4.87;;;;;;;;;;4450923;32;19951;-69
2023/03/04 01:46:01;;;;;;;;;;;;;;;;;;4451910;32;20085;-69
2023/03/04 01:48:32;;;;;;;16.65;4.00;;;;;;;;;;4451458;32;19949;-69
2023/03/04 01:51:01;;;;;;;19.08;3.70;;;;;;;;;;4450390;32;20034;-69
2023/03/04 01:53:26;;;;;;;17.25;3.40;;;;;;;;;;4452413;32;20033;-70
2023/03/04 01:55:52;;;;;;;;;;;;;;;;;;4450811;32;20081;-69
2023/03/04 01:58:17;;;;;;;15.93;3.00;;;;;;;;;;4450670;32;20231;-69
2023/03/04 02:00:42;;;;;;;;;;;;;;;;;;4450229;32;20034;-69
2023/03/04 02:03:10;;;;;;;15.70;3.05;;;;;;;;;;4451810;32;19972;-69
2023/03/04 02:05:37;;;;;;;17.98;4.43;;;;;;;;;;4451751;32;20153;-69
2023/03/04 02:08:02;;;;;;;24.42;4.37;;;;;;;;;;4450918;32;20032;-69
2023/03/04 02:10:27;;;;;;;;;;;;;;;;;;4451196;32;20391;-69
2023/03/04 02:12:52;;;;;;;16.55;4.07;;;;;;;;;;4451066;32;20358;-69
2023/03/04 02:15:18;;;;;;;;;;;;;;;;;;4453890;32;20506;-69
2023/03/04 02:17:43;;;;;;;23.80;4.15;;;;;;;;;;4476460;32;19931;-70
2023/03/04 02:20:08;;;;;;;;;;;;;;;;;;4466902;32;20061;-69
2023/03/04 02:22:37;;;;;;;22.87;3.00;;;;;;;;;;4467694;32;19995;-69
2023/03/04 02:25:12;;;;;;;13.70;3.30;;;;;;;;;;4469987;32;20051;-70
2023/03/04 02:27:37;;;;;;;17.92;3.65;;;;;;;;;;4454909;32;20115;-69
2023/03/04 02:30:02;;;;;;;;;;;;;;;;;;4453706;32;20021;-68
2023/03/04 02:32:27;;;;;;;21.58;4.75;;;;;;;;;;4453582;32;19937;-68
2023/03/04 02:34:52;;;;;;;;;;;;;;;;;;4455227;32;20189;-69
2023/03/04 02:37:18;;;;;;;14.52;3.62;;;;;;;;;;4454293;32;19968;-69
2023/03/04 02:39:45;;;;;;;13.05;3.60;;;;;;;;;;4454682;32;20128;-69
2023/03/04 02:42:10;;;;;;;20.90;4.32;;;;;;;;;;4441100;32;20029;-68
2023/03/04 02:44:35;;;;;;;;;;;;;;;;;;4453877;32;20055;-69
2023/03/04 02:47:01;;;;;;;18.10;3.65;;;;;;;;;;4459856;32;19932;-68
2023/03/04 02:49:26;;;;;;;;;;;;;;;;;;4469924;32;20037;-68
2023/03/04 02:51:52;;;;;;;29.30;4.10;;;;;;;;;;4470411;32;19950;-69
2023/03/04 02:54:17;;;;;;;;;;;;;;;;;;4468720;32;20116;-68
2023/03/04 02:56:49;;;;;;;20.85;3.37;;;;;;;;;;4468623;32;20363;-69
2023/03/04 02:59:14;;;;;;;12.82;3.33;;;;;;;;;;4470240;32;20120;-69
2023/03/04 03:01:39;;;;;;;;;;;;;;;;;;4470018;32;20051;-68
2023/03/04 03:04:05;;;;;;;16.73;4.07;;;;;;;;;;4469794;32;19951;-69
2023/03/04 03:06:30;;;;;;;;;;;;;;;;;;4469950;32;20045;-69
2023/03/04 03:08:55;;;;;;;15.07;4.10;;;;;;;;;;4469792;32;19936;-69
2023/03/04 03:11:20;;;;;;;;;;;;;;;;;;4468573;32;20148;-69
2023/03/04 03:13:45;;;;;;;20.25;4.30;;;;;;;;;;4468848;32;19991;-69
2023/03/04 03:16:10;;;;;;;;;;;;;;;;;;4465877;32;20434;-68
2023/03/04 03:18:36;;;;;;;16.60;4.00;;;;;;;;;;4457029;32;20354;-68
2023/03/04 03:21:01;;;;;;;;;;;;;;;;;;4447372;32;20025;-68
2023/03/04 03:23:26;;;;;;;16.08;3.70;;;;;;;;;;4452532;32;19936;-69
2023/03/04 03:25:51;;;;;;;;;;;;;;;;;;4453666;32;20361;-68
2023/03/04 03:28:16;;;;;;;10.75;2.83;;;;;;;;;;4453266;32;19951;-68
2023/03/04 03:30:41;;;;;;;13.45;3.58;;;;;;;;;;4452523;32;20159;-69
2023/03/04 03:33:06;;;;;;;;;;;;;;;;;;4452777;32;20025;-68
2023/03/04 03:35:32;;;;;;;17.15;3.20;;;;;;;;;;4452124;32;19932;-68
2023/03/04 03:37:57;;;;;;;;;;;;;;;;;;4453912;32;20124;-68
2023/03/04 03:40:22;;;;;;;20.08;5.53;;;;;;;;;;4452997;32;19936;-68
2023/03/04 03:42:47;;;;;;;;;;;;;;;;;;4453151;32;20419;-68
2023/03/04 03:45:12;;;;;;;21.58;3.65;;;;;;;;;;4452363;32;19976;-68
2023/03/04 03:47:37;;;;;;;;;;;;;;;;;;4460956;32;20074;-68
2023/03/04 03:50:03;;;;;;;26.87;4.03;;;;;;;;;;4483977;32;20361;-69
2023/03/04 03:52:29;;;;;;;21.20;4.20;;;;;;;;;;4483617;32;20075;-68
2023/03/04 03:54:54;;;;;;;;;;;;;;;;;;4484940;32;20028;-68
2023/03/04 03:57:19;;;;;;;14.15;3.67;;;;;;;;;;4483824;32;19965;-69
2023/03/04 03:59:44;;;;;;;;;;;;;;;;;;4484320;32;20017;-68
2023/03/04 04:02:09;;;;;;;16.23;3.58;;;;;;;;;;4484995;32;19967;-68
2023/03/04 04:04:34;;;;;;;;;;;;;;;;;;4484817;32;20175;-69
2023/03/04 04:07:00;;;;;;;19.30;2.80;;;;;;;;;;4483312;32;20328;-69
2023/03/04 04:09:25;;;;;;;;;;;;;;;;;;4470351;32;20028;-68
2023/03/04 04:11:50;;;;;;;15.30;3.70;;;;;;;;;;4484891;32;19936;-68
2023/03/04 04:14:15;;;;;;;;;;;;;;;;;;4483826;32;20065;-68
2023/03/04 04:16:40;;;;;;;16.52;5.40;;;;;;;;;;4469755;32;19935;-68
2023/03/04 04:19:05;;;;;;;;;;;;;;;;;;4483814;32;20020;-68
2023/03/04 04:21:30;;;;;;;17.35;4.97;;;;;;;;;;4483410;32;19936;-69
2023/03/04 04:23:56;;;;;;;;;;;;;;;;;;4483568;32;20021;-68
2023/03/04 04:26:21;;;;;;;26.15;5.28;;;;;;;;;;4468335;32;19970;-68
2023/03/04 04:28:46;;;;;;;;;;;;;;;;;;4484833;32;20100;-68
2023/03/04 04:31:11;;;;;;;13.32;4.50;;;;;;;;;;4468483;32;19944;-68
2023/03/04 04:33:36;;;;;;;;;;;;;;;;;;4483426;32;20591;-68
2023/03/04 04:36:03;;;;;;;12.60;3.35;;;;;;;;;;4483364;32;19931;-69
2023/03/04 04:38:29;;;;;;;17.08;3.85;;;;;;;;;;4482268;32;20089;-69
2023/03/04 04:40:54;;;;;;;;;;;;;;;;;;4482932;32;20025;-69
2023/03/04 04:43:19;;;;;;;11.05;3.12;;;;;;;;;;4483794;32;19967;-68
2023/03/04 04:45:44;;;;;;;;;;;;;;;;;;4484318;32;20020;-69
2023/03/04 04:48:09;;;;;;;14.87;4.25;;;;;;;;;;4482685;32;20008;-69
2023/03/04 04:50:34;;;;;;;;;;;;;;;;;;4482277;32;20041;-69
2023/03/04 04:52:59;;;;;;;19.83;3.75;;;;;;;;;;4482669;32;20312;-68
2023/03/04 04:55:25;;;;;;;;;;;;;;;;;;4469021;32;20024;-70
2023/03/04 04:57:50;;;;;;;13.73;3.47;;;;;;;;;;4483930;32;20313;-69
2023/03/04 05:00:17;;;;;;;;;;;;;;;;;;4482897;32;20047;-68
2023/03/04 05:02:42;;;;;;;14.73;3.70;;;;;;;;;;4469188;32;19960;-69
2023/03/04 05:05:08;;;;;;;;;;;;;;;;;;4484357;32;20021;-70
2023/03/04 05:07:33;;;;;;;17.15;3.90;;;;;;;;;;4482498;32;19936;-69
2023/03/04 05:09:58;;;;;;;;;;;;;;;;;;4484142;32;20249;-69
2023/03/04 05:12:23;;;;;;;16.77;3.15;;;;;;;;;;4468025;32;19936;-69
2023/03/04 05:14:48;;;;;;;;;;;;;;;;;;4484712;32;20057;-68
2023/03/04 05:17:14;;;;;;;18.05;2.92;;;;;;;;;;4456011;32;19932;-69
2023/03/04 05:19:39;;;;;;;;;;;;;;;;;;4451072;32;20080;-69
2023/03/04 05:22:04;;;;;;;16.12;3.08;;;;;;;;;;4451091;32;19970;-68
2023/03/04 05:24:29;;;;;;;;;;;;;;;;;;4451325;32;20018;-68
2023/03/04 05:26:54;;;;;;;21.95;3.15;;;;;;;;;;4452740;32;19978;-68
2023/03/04 05:29:19;;;;;;;;;;;;;;;;;;4452586;32;20123;-68
2023/03/04 05:31:44;;;;;;;19.08;4.45;;;;;;;;;;4451870;32;19936;-67
2023/03/04 05:34:11;;;;;;;;;;;;;;;;;;4437609;32;20140;-68
2023/03/04 05:36:37;;;;;;;15.68;3.37;;;;;;;;;;4452532;32;19936;-69
2023/03/04 05:39:02;;;;;;;;;;;;;;;;;;4452180;32;20081;-68
2023/03/04 05:41:27;;;;;;;12.50;3.12;;;;;;;;;;4451759;32;19943;-69
2023/03/04 05:43:52;;;;;;;;;;;;;;;;;;4452139;32;20459;-68
2023/03/04 05:46:17;;;;;;;14.06;2.78;;;;;;;;;;4467651;32;19988;-68
2023/03/04 05:48:43;;;;;;;;;;;;;;;;;;4462199;32;20029;-69
2023/03/04 05:51:08;;;;;;;9.80;2.53;;;;;;;;;;4464111;32;19940;-69
2023/03/04 05:53:35;;;;;;;;;;;;;;;;;;4471707;32;20128;-69
2023/03/04 05:56:05;;;;;;;16.35;2.78;;;;;;;;;;4469833;32;19939;-69
2023/03/04 05:58:30;;;;;;;17.87;2.78;;;;;;;;;;4470238;32;20425;-68
2023/03/04 06:00:55;;;;;;;;;;;;;;;;;;4469907;32;20021;-68
2023/03/04 06:03:21;;;;;;;15.70;3.37;;;;;;;;;;4468814;32;19936;-68
2023/03/04 06:05:46;;;;;;;;;;;;;;;;;;4469096;32;20071;-69
2023/03/04 06:08:11;;;;;;;18.58;2.80;;;;;;;;;;4470970;32;19946;-68
2023/03/04 06:10:36;;;;;;;;;;;;;;;;;;4470386;32;20028;-69
2023/03/04 06:13:02;;;;;;;11.15;2.60;;;;;;;;;;4469003;32;19933;-69
2023/03/04 06:15:27;;;;;;;;;;;;;;;;;;4465612;32;20060;-69
2023/03/04 06:17:52;;;;;;;15.73;2.62;;;;;;;;;;4453827;32;19932;-69
2023/03/04 06:20:17;;;;;;;;;;;;;;;;;;4455021;32;20036;-69
2023/03/04 06:22:42;;;;;;;18.25;2.67;;;;;;;;;;4440809;32;19952;-69
2023/03/04 06:25:07;;;;;;;;;;;;;;;;;;4454317;32;20113;-69
2023/03/04 06:27:33;;;;;;;11.23;2.70;;;;;;;;;;4454714;32;19997;-69
2023/03/04 06:29:58;;;;;;;;;;;;;;;;;;4440890;32;20024;-68
2023/03/04 06:32:23;;;;;;;12.68;4.18;;;;;;;;;;4440973;32;19951;-68
2023/03/04 06:34:48;;;;;;;;;;;;;;;;;;4453177;32;20531;-68
2023/03/04 06:37:13;;;;;;;12.90;2.62;;;;;;;;;;4453354;32;20291;-68
2023/03/04 06:39:39;;;;;;;;;;;;;;;;;;4457280;32;20143;-68
2023/03/04 06:42:04;;;;;;;13.77;2.03;;;;;;;;;;4453690;32;19999;-69
2023/03/04 06:44:29;;;;;;;;;;;;;;;;;;4463087;32;20189;-68
2023/03/04 06:46:54;;;;;;;12.77;2.62;;;;;;;;;;4459472;32;19974;-68
2023/03/04 06:49:19;;;;;;;;;;;;;;;;;;4451540;32;20410;-68
2023/03/04 06:51:44;;;;;;;16.20;2.58;;;;;;;;;;4459746;32;19998;-68
2023/03/04 06:54:09;;;;;;;;;;;;;;;;;;4461485;32;20423;-69
2023/03/04 06:56:35;;;;;;;12.85;2.50;;;;;;;;;;4462338;32;19953;-69
2023/03/04 06:59:00;;;;;;;;;;;;;;;;;;4455426;32;20059;-68
2023/03/04 07:01:26;;;;;;;16.37;2.60;;;;;;;;;;4459163;32;20343;-68
2023/03/04 07:03:52;;;;;;;19.85;3.25;;;;;;;;;;4458682;32;20150;-69
2023/03/04 07:06:18;;;;;;;9.32;2.10;;;;;;;;;;4459722;32;20051;-69
2023/03/04 07:08:44;;;;;;;23.60;3.87;;;;;;;;;;4460714;32;20408;-69
2023/03/04 07:11:09;;;;;;;;;;;;;;;;;;4461447;32;20064;-70
2023/03/04 07:13:37;;;;;;;10.88;2.58;;;;;;;;;;4459942;32;19947;-69
2023/03/04 07:16:03;;;;;;;22.00;3.87;;;;;;;;;;4459598;32;20221;-68
2023/03/04 07:18:28;;;;;;;;;;;;;;;;;;4469766;32;20033;-69
2023/03/04 07:20:53;;;;;;;10.35;2.50;;;;;;;;;;4462827;32;19951;-69
2023/03/04 07:23:18;;;;;;;;;;;;;;;;;;4461293;32;20198;-69
2023/03/04 07:25:43;;;;;;;15.07;2.33;;;;;;;;;;4452680;32;20322;-69
2023/03/04 07:28:09;;;;;;;;;;;;;;;;;;4465903;32;20083;-69
2023/03/04 07:30:34;;;;;;;14.05;2.50;;;;;;;;;;4467932;32;19936;-69
2023/03/04 07:32:59;;;;;;;;;;;;;;;;;;4453815;32;20488;-69
2023/03/04 07:35:24;;;;;;;8.10;1.70;;;;;;;;;;4467590;32;20298;-69
2023/03/04 07:37:49;;;;;;;;;;;;;;;;;;4464359;32;20063;-69
2023/03/04 07:40:15;;;;;;;7.16;1.80;;;;;;;;;;4467834;32;19971;-69
2023/03/04 07:42:40;;;;;;;;;;;;;;;;;;4453414;32;20020;-69
2023/03/04 07:45:06;;;;;;;2.97;1.55;;;;;;;;;;4456267;32;19987;-69
2023/03/04 07:47:32;;;;;;;6.53;1.70;;;;;;;;;;4466006;32;20162;-70
2023/03/04 07:49:57;;;;;;;;;;;;;;;;;;4451720;32;20416;-70
2023/03/04 07:52:22;;;;;;;4.93;1.40;;;;;;;;;;4437667;32;19983;-68
2023/03/04 07:54:47;;;;;;;;;;;;;;;;;;4452754;32;20406;-69
2023/03/04 07:57:12;;;;;;;10.20;2.22;;;;;;;;;;4452181;32;19947;-68
2023/03/04 07:59:37;;;;;;;;;;;;;;;;;;4451733;32;20026;-68
2023/03/04 08:02:03;;;;;;;2.67;1.48;;;;;;;;;;4452064;32;20320;-70
2023/03/04 08:04:28;;;;;;;;;;;;;;;;;;4451716;32;20041;-69
2023/03/04 08:06:53;;;;;;;6.70;1.85;;;;;;;;;;4452781;32;19953;-69
2023/03/04 08:09:18;;;;;;;;;;;;;;;;;;4452917;32;20029;-69
2023/03/04 08:11:43;;;;;;;7.50;1.75;;;;;;;;;;4450885;32;20336;-69
2023/03/04 08:14:10;;;;;;;8.23;2.05;;;;;;;;;;4440048;32;20150;-68
2023/03/04 08:16:35;;;;;;;10.82;2.00;;;;;;;;;;4451896;32;20426;-69
2023/03/04 08:19:00;;;;;;;;;;;;;;;;;;4452935;32;20078;-69
2023/03/04 08:21:26;;;;;;;6.20;1.62;;;;;;;;;;4454683;32;20004;-69
2023/03/04 08:23:51;;;;;;;;;;;;;;;;;;4462971;32;20131;-69
2023/03/04 08:26:16;;;;;;;6.85;1.48;;;;;;;;;;4467479;32;20310;-69
2023/03/04 08:28:41;;;;;;;;;;;;;;;;;;4453939;32;20131;-69
2023/03/04 08:31:06;;;;;;;7.12;1.52;;;;;;;;;;4466824;32;20251;-69
2023/03/04 08:33:31;;;;;;;;;;;;;;;;;;4466884;32;20096;-69
2023/03/04 08:35:57;;;;;;;7.22;1.60;;;;;;;;;;4466518;32;19950;-69
2023/03/04 08:38:22;;;;;;;;;;;;;;;;;;4468457;32;20128;-69
2023/03/04 08:40:51;;;;;;;9.90;1.80;;;;;;;;;;4466624;32;19936;-69
2023/03/04 08:43:16;;;;;;;9.98;1.70;;;;;;;;;;4467872;32;20145;-69
2023/03/04 08:45:41;;;;;;;;;;;;;;;;;;4467860;32;20081;-69
2023/03/04 08:48:06;;;;;;;6.70;1.70;;;;;;;;;;4459147;32;19944;-69
2023/03/04 08:50:31;;;;;;;;;;;;;;;;;;4440622;32;20485;-69
2023/03/04 08:52:57;;;;;;;5.30;1.60;;;;;;;;;;4466315;32;19947;-69
2023/03/04 08:55:23;;;;;;;6.00;1.33;;;;;;;;;;4466551;32;20184;-68
2023/03/04 08:57:48;;;;;;;;;;;;;;;;;;4452222;32;20033;-69
2023/03/04 09:00:13;;;;;;;9.50;1.92;;;;;;;;;;4476481;32;19947;-69
2023/03/04 09:02:38;;;;;;;;;;;;;;;;;;4466997;32;20142;-69
2023/03/04 09:05:04;;;;;;;4.05;1.23;;;;;;;;;;4482960;32;19936;-68
2023/03/04 09:07:29;;;;;;;;;;;;;;;;;;4483209;32;20150;-68
2023/03/04 09:09:55;;;;;;;5.82;1.90;;;;;;;;;;4483095;32;19956;-69
2023/03/04 09:12:20;;;;;;;;;;;;;;;;;;4467768;32;20119;-69
2023/03/04 09:14:45;;;;;;;7.43;1.80;;;;;;;;;;4481049;32;20258;-69
2023/03/04 09:17:10;;;;;;;;;;;;;;;;;;4468787;32;20029;-69
2023/03/04 09:19:35;;;;;;;8.07;2.00;;;;;;;;;;4450872;32;19946;-69
2023/03/04 09:22:01;;;;;;;;;;;;;;;;;;4452655;32;20067;-69
2023/03/04 09:24:26;;;;;;;4.60;1.60;;;;;;;;;;4452926;32;19993;-70
2023/03/04 09:26:51;;;;;;;;;;;;;;;;;;4455413;32;20034;-70
2023/03/04 09:29:16;;;;;;;5.70;1.55;;;;;;;;;;4454651;32;19952;-69
2023/03/04 09:31:41;;;;;;;;;;;;;;;;;;4454446;32;20064;-69
2023/03/04 09:34:07;;;;;;;4.47;1.52;;;;;;;;;;4453930;32;19932;-70
2023/03/04 09:36:32;;;;;;;;;;;;;;;;;;4453722;32;20367;-69
2023/03/04 09:39:04;;;;;;;4.90;1.65;;;;;;;;;;4455600;32;19947;-69
2023/03/04 09:41:43;;;;;;;3.67;1.87;;;;;;;;;;4454967;32;20025;-69
2023/03/04 09:44:18;;;;;;;7.10;1.65;;;;;;;;;;4440456;32;20069;-69
2023/03/04 09:46:44;;;;;;;3.87;1.75;;;;;;;;;;4453222;32;20104;-70
2023/03/04 09:49:09;;;;;;;;;;;;;;;;;;4455301;32;20017;-70
2023/03/04 09:51:34;;;;;;;11.05;2.00;;;;;;;;;;4453507;32;19971;-69
2023/03/04 09:53:59;;;;;;;;;;;;;;;;;;4455237;32;20056;-69
2023/03/04 09:56:25;;;;;;;7.78;1.70;;;;;;;;;;4454743;32;20046;-68
2023/03/04 09:58:50;;;;;;;;;;;;;;;;;;4455606;32;20025;-69
2023/03/04 10:01:18;;;;;;;8.75;2.25;;;;;;;;;;4455049;32;19932;-69
2023/03/04 10:04:01;;;;;;;7.47;1.50;;;;;;;;;;4454550;32;20116;-69
2023/03/04 10:06:27;;;;;;;3.05;1.30;;;;;;;;;;4453576;32;20413;-69
2023/03/04 10:08:52;;;;;;;;;;;;;;;;;;4454745;32;20074;-69
2023/03/04 10:11:36;;;;;;;10.02;1.73;;;;;;;;;;4454498;32;19968;-70
2023/03/04 10:14:15;;;;;;;4.95;1.50;;;;;;;;;;4454218;32;20147;-69
2023/03/04 10:16:45;;;;;;;3.55;2.00;;;;;;;;;;4476230;32;20057;-69
2023/03/04 10:19:13;;;;;;;8.85;1.80;;;;;;;;;;4465968;32;20021;-69
2023/03/04 10:21:43;;;;;;;4.50;1.02;;;;;;;;;;4466974;32;20048;-69
2023/03/04 10:24:21;;;;;;;5.40;1.48;;;;;;;;;;4460496;32;20044;-69
2023/03/04 10:26:49;;;;;;;2.78;1.60;;;;;;;;;;4453597;32;20379;-69
2023/03/04 10:29:16;;;;;;;4.28;1.65;;;;;;;;;;4453871;32;20021;-69
2023/03/04 10:31:42;;;;;;;7.35;2.22;;;;;;;;;;4470352;32;20088;-69
2023/03/04 10:34:09;;;;;;;8.30;2.22;;;;;;;;;;4454960;32;20021;-69
2023/03/04 10:36:55;;;;;;;5.65;2.15;;;;;;;;;;4468913;32;20025;-69
2023/03/04 10:39:28;;;;;;;4.03;1.95;;;;;;;;;;4454896;32;20064;-69
2023/03/04 10:41:57;;;;;;;6.93;2.10;;;;;;;;;;4468068;32;20074;-70
2023/03/04 10:44:23;;;;;;;11.75;2.17;;;;;;;;;;4469868;32;20041;-69
2023/03/04 10:46:49;;;;;;;;;;;;;;;;;;4454745;32;20415;-69
2023/03/04 10:49:16;;;;;;;8.57;2.20;;;;;;;;;;4437973;32;19936;-69
2023/03/04 10:51:49;;;;;;;11.12;2.25;;;;;;;;;;4453776;32;20026;-68
2023/03/04 10:54:29;;;;;;;6.20;1.90;;;;;;;;;;4452557;32;20467;-69
2023/03/04 10:56:59;;;;;;;8.50;2.03;;;;;;;;;;4459657;32;20025;-69
2023/03/04 10:59:30;;;;;;;7.10;2.00;;;;;;;;;;4469980;32;20032;-69
2023/03/04 11:01:56;;;;;;;7.60;2.40;;;;;;;;;;4462211;32;20046;-68
2023/03/04 11:04:21;;;;;;;;;;;;;;;;;;4453924;32;20460;-69
2023/03/04 11:06:47;;;;;;;8.13;1.98;;;;;;;;;;4452553;32;19932;-68
2023/03/04 11:09:26;;;;;;;7.30;2.22;;;;;;;;;;4452446;32;20371;-69
2023/03/04 11:11:52;;;;;;;10.57;2.10;;;;;;;;;;4453984;32;20037;-69
2023/03/04 11:14:21;;;;;;;8.10;1.73;;;;;;;;;;4452654;32;20029;-69
2023/03/04 11:16:51;;;;;;;6.30;1.48;;;;;;;;;;4468588;32;20033;-69
2023/03/04 11:19:19;;;;;;;6.45;1.62;;;;;;;;;;4467960;32;20061;-69
2023/03/04 11:21:44;;;;;;;10.38;2.45;;;;;;;;;;4468856;32;20379;-69
2023/03/04 11:24:09;;;;;;;;;;;;;;;;;;4469059;32;20056;-70
2023/03/04 11:26:46;;;;;;;8.70;1.90;;;;;;;;;;4467659;32;19951;-69
2023/03/04 11:29:11;;;;;;;;;;;;;;;;;;4467666;32;20033;-69
2023/03/04 11:31:39;;;;;;;10.23;1.80;;;;;;;;;;4453540;32;19970;-69
2023/03/04 11:34:12;;;;;;;7.32;2.20;;;;;;;;;;4464112;32;20036;-69
2023/03/04 11:36:37;;;;;;;6.97;1.83;;;;;;;;;;4450253;32;20332;-69
2023/03/04 11:39:04;;;;;;;9.60;2.40;;;;;;;;;;4462174;32;20457;-69
2023/03/04 11:41:34;;;;;;;7.47;2.65;;;;;;;;;;4468677;32;20355;-69
2023/03/04 11:44:00;;;;;;;7.60;2.00;;;;;;;;;;4468011;32;20052;-69
2023/03/04 11:46:25;;;;;;;;;;;;;;;;;;4455302;32;20040;-70
2023/03/04 11:49:17;;;;;;;8.50;2.95;;;;;;;;;;4450952;32;20306;-69
2023/03/04 11:51:56;;;;;;;7.15;2.30;;;;;;;;;;4422068;32;20071;-69
2023/03/04 11:54:48;;;;;;;8.02;1.85;;;;;;;;;;4452984;32;20033;-69
2023/03/04 11:57:28;;;;;;;9.10;1.98;;;;;;;;;;4449639;32;20029;-71
2023/03/04 11:59:53;;;;;;;7.32;1.98;;;;;;;;;;4466836;32;20088;-68
2023/03/04 12:02:19;;;;;;;;;;;;;;;;;;4452909;32;20100;-68
2023/03/04 12:04:44;;;;;;;5.72;1.68;;;;;;;;;;4468046;32;19947;-68
2023/03/04 12:07:09;;;;;;;;;;;;;;;;;;4468517;32;20087;-68
2023/03/04 12:09:49;;;;;;;5.65;1.60;;;;;;;;;;4468571;32;19936;-67
2023/03/04 12:12:24;;;;;;;7.62;1.45;;;;;;;;;;4467378;32;20475;-69
2023/03/04 12:15:09;;;;;;;9.40;2.20;;;;;;;;;;4453301;32;20410;-69
2023/03/04 12:17:53;;;;;;;7.18;1.75;;;;;;;;;;4468855;32;20052;-69
2023/03/04 12:20:21;;;;;;;6.57;1.73;;;;;;;;;;4468912;32;20372;-69
2023/03/04 12:22:51;;;;;;;7.35;2.30;;;;;;;;;;4467009;32;20067;-68
2023/03/04 12:25:19;;;;;;;8.68;2.15;;;;;;;;;;4453124;32;20044;-68
2023/03/04 12:28:03;;;;;;;5.10;2.10;;;;;;;;;;4466260;32;20474;-69
2023/03/04 12:30:37;;;;;;;6.07;2.35;;;;;;;;;;4467131;32;20044;-69
2023/03/04 12:33:11;;;;;;;9.55;2.10;;;;;;;;;;4468196;32;20081;-69
2023/03/04 12:35:36;;;;;;;7.62;2.83;;;;;;;;;;4453881;32;20040;-68
2023/03/04 12:38:13;;;;;;;5.75;2.60;;;;;;;;;;4466520;32;20319;-68
2023/03/04 12:41:03;;;;;;;7.18;3.37;;;;;;;;;;4463975;32;20057;-69
2023/03/04 12:43:35;;;;;;;7.62;2.67;;;;;;;;;;4450881;32;20031;-69
2023/03/04 12:46:03;;;;;;;6.62;2.42;;;;;;;;;;4452691;32;20456;-68
2023/03/04 12:48:31;;;;;;;9.32;2.80;;;;;;;;;;4466645;32;20440;-68
2023/03/04 12:51:04;;;;;;;7.20;2.50;;;;;;;;;;4466662;32;20068;-68
2023/03/04 12:54:02;;;;;;;11.10;3.00;;;;;;;;;;4468289;32;20082;-68
2023/03/04 12:56:35;;;;;;;12.43;4.20;;;;;;;;;;4424232;32;20032;-69
2023/03/04 12:59:01;;;;;;;10.15;3.03;;;;;;;;;;4467828;32;20017;-67
2023/03/04 13:01:26;;;;;;;;;;;;;;;;;;4466260;32;20359;-68
2023/03/04 13:03:51;;;;;;;8.43;2.53;;;;;;;;;;4467446;32;19932;-68
2023/03/04 13:06:16;;;;;;;;;;;;;;;;;;4454502;32;20033;-68
2023/03/04 13:08:56;;;;;;;5.43;2.08;;;;;;;;;;4466319;32;19937;-68
2023/03/04 13:11:24;;;;;;;7.57;2.35;;;;;;;;;;4461979;32;20389;-68
2023/03/04 13:14:08;;;;;;;7.47;2.15;;;;;;;;;;4467682;32;20129;-68
2023/03/04 13:16:37;;;;;;;7.40;1.98;;;;;;;;;;4451249;32;20022;-68
2023/03/04 13:19:23;;;;;;;11.10;1.85;;;;;;;;;;4436730;32;20076;-68
2023/03/04 13:21:48;;;;;;;4.60;1.48;;;;;;;;;;4451291;32;20411;-68
2023/03/04 13:24:13;;;;;;;;;;;;;;;;;;4457391;32;20028;-68
2023/03/04 13:26:39;;;;;;;7.55;2.50;;;;;;;;;;4466897;32;19943;-68
2023/03/04 13:29:05;;;;;;;;;;;;;;;;;;4454192;32;20399;-69
2023/03/04 13:31:30;;;;;;;9.18;2.92;;;;;;;;;;4466159;32;19983;-68
2023/03/04 13:33:55;;;;;;;;;;;;;;;;;;4467892;32;20060;-68
2023/03/04 13:36:50;;;;;;;17.50;3.37;;;;;;;;;;4467326;32;19935;-69
2023/03/04 13:39:15;;;;;;;11.55;2.72;;;;;;;;;;4466561;32;20501;-67
2023/03/04 13:41:40;;;;;;;;;;;;;;;;;;4453693;32;20059;-69
2023/03/04 13:44:25;;;;;;;13.85;2.40;;;;;;;;;;4466322;32;19994;-68
2023/03/04 13:46:51;;;;;;;11.18;2.58;;;;;;;;;;4481698;32;20033;-69
2023/03/04 13:49:16;;;;;;;;;;;;;;;;;;4482926;32;20109;-69
2023/03/04 13:51:45;;;;;;;12.82;2.50;;;;;;;;;;4482128;32;20305;-68
2023/03/04 13:54:33;;;;;;;9.23;1.83;;;;;;;;;;4483063;32;20484;-69
2023/03/04 13:57:20;;;;;;;11.80;3.20;;;;;;;;;;4472448;32;20033;-71
2023/03/04 13:59:46;;;;;;;7.95;2.45;;;;;;;;;;4482280;32;20044;-69
2023/03/04 14:02:15;;;;;;;13.30;2.80;;;;;;;;;;4481289;32;20046;-69
2023/03/04 14:04:42;;;;;;;12.00;2.62;;;;;;;;;;4481365;32;20033;-69
2023/03/04 14:07:27;;;;;;;14.82;2.78;;;;;;;;;;4483188;32;20046;-68
2023/03/04 14:10:01;;;;;;;11.40;2.50;;;;;;;;;;4468910;32;20467;-69
2023/03/04 14:12:27;;;;;;;15.05;2.37;;;;;;;;;;4484121;32;20025;-69
2023/03/04 14:14:54;;;;;;;10.43;2.80;;;;;;;;;;4476442;32;20092;-69
2023/03/04 14:17:21;;;;;;;23.23;3.12;;;;;;;;;;4468471;32;20101;-69
2023/03/04 14:19:47;;;;;;;29.85;5.05;;;;;;;;;;4470185;32;20025;-69
2023/03/04 14:22:12;;;;;;;;;;;;;;;;;;4455604;32;20063;-69
2023/03/04 14:24:37;;;;;;;11.48;3.17;;;;;;;;;;4470318;32;19942;-70
2023/03/04 14:27:09;;;;;;;13.35;3.53;;;;;;;;;;4470122;32;20346;-68
2023/03/04 14:29:34;;;;;;;14.85;2.70;;;;;;;;;;4469781;32;20025;-68
2023/03/04 14:32:01;;;;;;;;;;;;;;;;;;4468975;32;20083;-68
2023/03/04 14:34:32;;;;;;;12.88;3.17;;;;;;;;;;4468375;32;19940;-69
2023/03/04 14:36:57;;;;;;;8.25;2.28;;;;;;;;;;4468584;32;20373;-69
2023/03/04 14:39:23;;;;;;;;;;;;;;;;;;4470455;32;20022;-69
2023/03/04 14:41:48;;;;;;;16.23;2.90;;;;;;;;;;4468397;32;19970;-68
2023/03/04 14:44:13;;;;;;;;;;;;;;;;;;4468388;32;20056;-70
2023/03/04 14:46:41;;;;;;;13.57;2.92;;;;;;;;;;4469229;32;19989;-68
2023/03/04 14:49:09;;;;;;;14.32;3.47;;;;;;;;;;4469521;32;20029;-68
2023/03/04 14:51:48;;;;;;;18.48;3.20;;;;;;;;;;4468379;32;20047;-69
2023/03/04 14:54:29;;;;;;;10.70;2.92;;;;;;;;;;4469604;32;20148;-68
2023/03/04 14:56:55;;;;;;;19.90;2.85;;;;;;;;;;4466481;32;20021;-70
2023/03/04 14:59:20;;;;;;;;;;;;;;;;;;4455309;32;20103;-69
2023/03/04 15:01:45;;;;;;;9.18;2.55;;;;;;;;;;4452257;32;19932;-69
2023/03/04 15:04:10;;;;;;;;;;;;;;;;;;4451669;32;20399;-70
2023/03/04 15:06:36;;;;;;;19.95;3.28;;;;;;;;;;4452660;32;19951;-68
2023/03/04 15:09:01;;;;;;;12.95;2.75;;;;;;;;;;4452441;32;20048;-68
2023/03/04 15:11:26;;;;;;;;;;;;;;;;;;4454383;32;20026;-68
2023/03/04 15:13:53;;;;;;;17.60;3.55;;;;;;;;;;4459356;32;19969;-69
2023/03/04 15:16:21;;;;;;;12.82;3.00;;;;;;;;;;4452815;32;20052;-68
2023/03/04 15:18:54;;;;;;;11.38;2.70;;;;;;;;;;4452825;32;20411;-68